Time;durP1;ratioP1;P1;durP2;ratioP2;P2;SDS_P1;SDS_P2;PMS_P1;PMS_P2;Temp;Humidity;BMP_temperature;BMP_pressure;BME280_temperature;BME280_humidity;BME280_pressure;Samples;Min_cycle;Max_cycle;Signal;HPM_P1;HPM_P2
2022/08/26 00:00:46;;;;;;;;;;;;;;;22.10;48.03;99162.65;1657771;85;20114;-68
2022/08/26 00:03:13;;;;;;;;;;;;;;;22.07;47.94;99159.08;1657652;85;20102;-68
2022/08/26 00:05:40;;;;;;;;;;;;;;;22.05;48.12;99158.52;1658404;85;20420;-70
2022/08/26 00:08:08;;;;;;;;;;;;;;;22.00;48.30;99157.11;1658234;85;20094;-67
2022/08/26 00:10:34;;;;;;;;;;;;;;;21.93;48.69;99161.34;1657625;85;20554;-68
2022/08/26 00:13:01;;;;;;;;;;;;;;;21.88;48.66;99159.92;1658275;85;20122;-67
2022/08/26 00:15:27;;;;;;;;;;;;;;;21.82;48.81;99163.59;1658325;85;20126;-67
2022/08/26 00:17:54;;;;;;;;;;;;;;;21.77;49.09;99167.58;1657843;85;20491;-67
2022/08/26 00:20:23;;;;;;;;;;;;;;;21.72;49.96;99164.81;1657931;85;21151;-68
2022/08/26 00:22:49;;;;;;;;;;;;;;;21.65;50.53;99160.11;1657403;85;20467;-69
2022/08/26 00:25:15;;;;;;;;;;;;;;;21.58;50.76;99162.19;1658001;85;20123;-68
2022/08/26 00:27:42;;;;;;;;;;;;;;;21.52;51.09;99160.47;1658068;85;20118;-68
2022/08/26 00:30:12;;;;;;;;;;;;;;;21.43;51.69;99160.06;1658079;85;20090;-68
2022/08/26 00:32:39;;;;;;;;;;;;;;;21.33;51.98;99163.97;1658269;85;21149;-68
2022/08/26 00:35:06;;;;;;;;;;;;;;;21.26;52.26;99170.09;1658142;85;20106;-68
2022/08/26 00:37:32;;;;;;;;;;;;;;;21.18;52.20;99162.37;1658172;85;20094;-69
2022/08/26 00:39:59;;;;;;;;;;;;;;;21.13;52.37;99166.88;1658019;86;21039;-68
2022/08/26 00:42:26;;;;;;;;;;;;;;;21.08;52.56;99168.98;1656849;85;20090;-68
2022/08/26 00:44:53;;;;;;;;;;;;;;;21.01;52.92;99165.59;1658104;85;21179;-69
2022/08/26 00:47:23;;;;;;;;;;;;;;;20.95;53.07;99166.56;1657529;85;20102;-71
2022/08/26 00:49:50;;;;;;;;;;;;;;;20.89;53.21;99162.13;1656944;85;20186;-69
2022/08/26 00:52:18;;;;;;;;;;;;;;;20.83;53.34;99167.17;1657233;85;20102;-72
2022/08/26 00:54:54;;;;;;;;;;;;;;;20.80;53.48;99173.06;1658272;85;20086;-69
2022/08/26 00:57:21;;;;;;;;;;;;;;;20.75;53.67;99171.06;1658231;85;21699;-69
2022/08/26 00:59:50;;;;;;;;;;;;;;;20.72;53.81;99166.17;1657886;85;20424;-69
2022/08/26 01:02:16;;;;;;;;;;;;;;;20.69;53.87;99168.00;1657912;85;20090;-68
2022/08/26 01:04:43;;;;;;;;;;;;;;;20.66;54.12;99164.43;1658356;85;20624;-68
2022/08/26 01:07:09;;;;;;;;;;;;;;;20.63;54.54;99166.27;1654567;85;20123;-68
2022/08/26 01:09:37;;;;;;;;;;;;;;;20.58;54.36;99170.22;1658680;85;21164;-69
2022/08/26 01:12:04;;;;;;;;;;;;;;;20.54;54.77;99169.61;1657811;85;20129;-68
2022/08/26 01:14:33;;;;;;;;;;;;;;;20.50;55.11;99167.08;1659213;85;20102;-68
2022/08/26 01:17:00;;;;;;;;;;;;;;;20.44;55.37;99166.72;1657995;85;20090;-68
2022/08/26 01:19:30;;;;;;;;;;;;;;;20.35;55.50;99168.97;1657995;85;20118;-69
2022/08/26 01:22:11;;;;;;;;;;;;;;;20.28;55.56;99170.45;1657315;85;21163;-67
2022/08/26 01:24:37;;;;;;;;;;;;;;;20.25;55.67;99166.08;1643000;85;20102;-69
2022/08/26 01:27:06;;;;;;;;;;;;;;;20.21;55.85;99172.97;1658273;85;20169;-68
2022/08/26 01:29:32;;;;;;;;;;;;;;;20.19;55.81;99168.34;1657991;85;20133;-68
2022/08/26 01:31:59;;;;;;;;;;;;;;;20.20;56.11;99174.05;1657694;85;20122;-68
2022/08/26 01:34:29;;;;;;;;;;;;;;;20.19;56.03;99175.09;1657845;85;21176;-68
2022/08/26 01:37:01;;;;;;;;;;;;;;;20.17;56.30;99175.88;1657571;85;20122;-69
2022/08/26 01:39:28;;;;;;;;;;;;;;;20.11;56.90;99181.69;1657630;85;20098;-67
2022/08/26 01:41:55;;;;;;;;;;;;;;;20.05;57.20;99169.69;1632638;86;21390;-68
2022/08/26 01:44:25;;;;;;;;;;;;;;;20.02;57.48;99172.86;1658112;85;20090;-67
2022/08/26 01:46:51;;;;;;;;;;;;;;;19.99;57.36;99170.63;1657924;85;21824;-68
2022/08/26 01:49:17;;;;;;;;;;;;;;;19.93;57.45;99173.75;1607933;86;20126;-67
2022/08/26 01:51:43;;;;;;;;;;;;;;;19.89;57.77;99177.17;1657065;85;20145;-66
2022/08/26 01:54:10;;;;;;;;;;;;;;;19.82;58.07;99173.75;1657631;85;20886;-66
2022/08/26 01:56:36;;;;;;;;;;;;;;;19.75;58.32;99177.12;1658063;85;20102;-65
2022/08/26 01:59:06;;;;;;;;;;;;;;;19.67;58.59;99175.61;1658293;85;21168;-69
2022/08/26 02:01:33;;;;;;;;;;;;;;;19.60;58.76;99179.78;1632592;86;20424;-68
2022/08/26 02:04:08;;;;;;;;;;;;;;;19.56;58.92;99177.25;1657922;85;20173;-69
2022/08/26 02:06:37;;;;;;;;;;;;;;;19.51;59.05;99176.31;1658305;85;20419;-69
2022/08/26 02:09:04;;;;;;;;;;;;;;;19.44;59.32;99177.79;1658131;85;20122;-73
2022/08/26 02:11:30;;;;;;;;;;;;;;;19.39;59.38;99170.93;1658331;85;21190;-70
2022/08/26 02:14:01;;;;;;;;;;;;;;;19.37;59.53;99171.66;1657603;85;20431;-70
2022/08/26 02:16:30;;;;;;;;;;;;;;;19.35;59.54;99172.41;1658441;85;20094;-70
2022/08/26 02:18:56;;;;;;;;;;;;;;;19.30;59.72;99177.68;1644786;85;20109;-71
2022/08/26 02:21:23;;;;;;;;;;;;;;;19.23;59.96;99178.85;1658323;85;20200;-70
2022/08/26 02:23:50;;;;;;;;;;;;;;;19.18;59.99;99178.73;1657974;85;21201;-69
2022/08/26 02:26:20;;;;;;;;;;;;;;;19.16;60.13;99184.89;1639671;86;20122;-68
2022/08/26 02:29:08;;;;;;;;;;;;;;;19.15;60.14;99177.31;1658282;85;20467;-68
2022/08/26 02:31:34;;;;;;;;;;;;;;;19.18;60.20;99177.37;1632516;86;20817;-68
2022/08/26 02:34:14;;;;;;;;;;;;;;;19.19;60.28;99179.03;1667912;84;20118;-72
2022/08/26 02:36:40;;;;;;;;;;;;;;;19.18;60.33;99178.73;1630800;86;21199;-69
2022/08/26 02:39:07;;;;;;;;;;;;;;;19.18;60.41;99177.37;1641074;86;20117;-71
2022/08/26 02:41:34;;;;;;;;;;;;;;;19.19;60.41;99176.34;1668188;84;20149;-69
2022/08/26 02:44:00;;;;;;;;;;;;;;;19.22;60.25;99167.23;1634621;86;20405;-68
2022/08/26 02:46:26;;;;;;;;;;;;;;;19.25;59.93;99171.34;1639049;86;20119;-67
2022/08/26 02:48:53;;;;;;;;;;;;;;;19.29;59.81;99170.66;1638949;86;21151;-68
2022/08/26 02:51:19;;;;;;;;;;;;;;;19.32;60.00;99172.87;1639522;86;20433;-68
2022/08/26 02:53:45;;;;;;;;;;;;;;;19.36;60.12;99170.53;1639333;86;20124;-70
2022/08/26 02:56:12;;;;;;;;;;;;;;;19.36;60.02;99173.23;1639580;86;20107;-69
2022/08/26 02:58:38;;;;;;;;;;;;;;;19.34;59.95;99176.70;1666517;84;20439;-70
2022/08/26 03:01:04;;;;;;;;;;;;;;;19.31;60.01;99176.64;1639651;86;21171;-71
2022/08/26 03:03:31;;;;;;;;;;;;;;;19.22;60.09;99178.02;1668016;84;20164;-71
2022/08/26 03:05:58;;;;;;;;;;;;;;;19.13;60.16;99175.91;1650510;85;20124;-72
2022/08/26 03:08:24;;;;;;;;;;;;;;;19.03;60.17;99175.14;1622229;86;20612;-70
2022/08/26 03:10:51;;;;;;;;;;;;;;;19.00;60.37;99174.25;1639694;86;20446;-71
2022/08/26 03:13:17;;;;;;;;;;;;;;;18.96;60.49;99172.53;1668190;84;21121;-70
2022/08/26 03:15:44;;;;;;;;;;;;;;;18.93;60.74;99173.52;1667416;84;20124;-67
2022/08/26 03:18:10;;;;;;;;;;;;;;;18.88;60.80;99172.03;1624214;86;20438;-68
2022/08/26 03:20:37;;;;;;;;;;;;;;;18.86;60.82;99173.62;1665919;84;20093;-68
2022/08/26 03:23:03;;;;;;;;;;;;;;;18.84;61.06;99170.87;1639536;86;20519;-68
2022/08/26 03:25:30;;;;;;;;;;;;;;;18.82;61.20;99168.94;1668240;84;21172;-67
2022/08/26 03:27:56;;;;;;;;;;;;;;;18.78;61.29;99173.13;1650893;85;20124;-68
2022/08/26 03:30:41;;;;;;;;;;;;;;;18.77;61.38;99162.08;1613525;86;20096;-72
2022/08/26 03:33:10;;;;;;;;;;;;;;;18.77;61.40;99170.16;1622354;86;20154;-69
2022/08/26 03:35:36;;;;;;;;;;;;;;;18.79;61.46;99164.00;1610653;87;20105;-66
2022/08/26 03:38:03;;;;;;;;;;;;;;;18.79;61.55;99164.83;1612468;87;21780;-68
2022/08/26 03:40:32;;;;;;;;;;;;;;;18.82;61.44;99159.51;1612615;87;20481;-68
2022/08/26 03:42:59;;;;;;;;;;;;;;;18.86;61.38;99160.67;1612683;87;20081;-68
2022/08/26 03:45:25;;;;;;;;;;;;;;;18.88;61.38;99159.91;1611575;89;20923;-68
2022/08/26 03:47:51;;;;;;;;;;;;;;;18.91;61.37;99158.11;1611515;87;20423;-67
2022/08/26 03:50:19;;;;;;;;;;;;;;;18.93;61.42;99155.47;1612554;87;21179;-69
2022/08/26 03:52:46;;;;;;;;;;;;;;;19.02;61.50;99154.62;1639991;86;20105;-66
2022/08/26 03:55:12;;;;;;;;;;;;;;;19.12;61.30;99150.81;1612286;87;20141;-67
2022/08/26 03:57:39;;;;;;;;;;;;;;;19.24;61.25;99157.03;1613771;87;20149;-67
2022/08/26 04:00:07;;;;;;;;;;;;;;;19.37;61.10;99157.35;1639660;86;20090;-69
2022/08/26 04:02:35;;;;;;;;;;;;;;;19.51;60.81;99155.55;1615879;86;21222;-68
2022/08/26 04:05:01;;;;;;;;;;;;;;;19.68;60.57;99160.52;1618319;86;20117;-67
2022/08/26 04:07:28;;;;;;;;;;;;;;;19.88;60.19;99149.35;1632589;86;20092;-68
2022/08/26 04:09:56;;;;;;;;;;;;;;;20.12;59.94;99150.12;1632674;86;20502;-69
2022/08/26 04:12:24;;;;;;;;;;;;;;;20.39;59.61;99146.36;1631962;86;20092;-68
2022/08/26 04:14:51;;;;;;;;;;;;;;;20.67;58.92;99150.39;1631065;86;21165;-68
2022/08/26 04:17:18;;;;;;;;;;;;;;;20.89;58.34;99153.48;1631871;86;20124;-68
2022/08/26 04:19:45;;;;;;;;;;;;;;;21.18;57.79;99148.03;1632200;86;20128;-71
2022/08/26 04:22:11;;;;;;;;;;;;;;;21.47;57.17;99150.92;1632652;86;20156;-68
2022/08/26 04:24:38;;;;;;;;;;;;;;;21.72;56.65;99151.83;1632557;86;20092;-68
2022/08/26 04:27:09;;;;;;;;;;;;;;;21.96;55.93;99144.59;1631603;86;21167;-70
2022/08/26 04:29:37;;;;;;;;;;;;;;;22.28;55.35;99141.18;1632174;86;20100;-69
2022/08/26 04:32:03;;;;;;;;;;;;;;;22.61;54.72;99145.05;1631123;86;20193;-68
2022/08/26 04:34:31;;;;;;;;;;;;;;;23.01;53.86;99148.19;1632170;86;20129;-70
2022/08/26 04:36:58;;;;;;;;;;;;;;;23.41;52.70;99141.47;1630158;86;20096;-69
2022/08/26 04:39:24;;;;;;;;;;;;;;;23.79;51.67;99138.43;1630657;86;22111;-68
2022/08/26 04:41:53;;;;;;;;;;;;;;;24.20;50.71;99137.55;1631543;86;20103;-68
2022/08/26 04:44:20;;;;;;;;;;;;;;;24.60;49.82;99133.30;1632193;86;20092;-71
2022/08/26 04:46:46;;;;;;;;;;;;;;;24.99;48.94;99131.75;1631398;86;20113;-69
2022/08/26 04:49:13;;;;;;;;;;;;;;;25.38;47.28;99134.17;1631461;86;20121;-69
2022/08/26 04:51:39;;;;;;;;;;;;;;;25.77;45.61;99138.48;1632019;86;21168;-68
2022/08/26 04:54:06;;;;;;;;;;;;;;;26.12;44.91;99135.67;1620377;88;20105;-68
2022/08/26 04:56:38;;;;;;;;;;;;;;;26.50;44.36;99136.82;1628140;86;20422;-68
2022/08/26 04:59:11;;;;;;;;;;;;;;;26.84;43.16;99140.45;1631018;86;20127;-68
2022/08/26 05:01:35;;;;;;;;;;;;;;;27.21;42.28;99141.25;1631855;86;20398;-65
2022/08/26 05:04:03;;;;;;;;;;;;;;;27.54;41.28;99140.41;1631472;86;21827;-67
2022/08/26 05:06:30;;;;;;;;;;;;;;;27.85;40.49;99134.06;1631552;86;20108;-66
2022/08/26 05:08:56;;;;;;;;;;;;;;;28.17;39.91;99144.38;1632012;86;20454;-68
2022/08/26 05:11:23;;;;;;;;;;;;;;;28.49;39.33;99145.87;1632175;86;20182;-68
2022/08/26 05:13:49;;;;;;;;;;;;;;;28.83;38.87;99142.11;1631887;86;20104;-66
2022/08/26 05:16:16;;;;;;;;;;;;;;;29.16;38.15;99135.00;1629426;86;21169;-69
2022/08/26 05:18:43;;;;;;;;;;;;;;;29.49;37.54;99139.91;1632884;86;20148;-68
2022/08/26 05:21:23;;;;;;;;;;;;;;;29.76;36.87;99133.11;1629320;86;20169;-70
2022/08/26 05:23:50;;;;;;;;;;;;;;;30.07;36.31;99133.34;1630636;86;20149;-72
2022/08/26 05:26:17;;;;;;;;;;;;;;;30.40;35.61;99134.84;1621301;88;20113;-68
2022/08/26 05:28:44;;;;;;;;;;;;;;;30.65;35.00;99132.66;1632128;86;21119;-69
2022/08/26 05:31:17;;;;;;;;;;;;;;;30.86;34.74;99129.69;1638890;86;20136;-70
2022/08/26 05:33:44;;;;;;;;;;;;;;;31.06;34.25;99125.91;1637374;86;20978;-70
2022/08/26 05:36:13;;;;;;;;;;;;;;;31.30;33.95;99116.53;1636497;86;20869;-73
2022/08/26 05:38:40;;;;;;;;;;;;;;;31.50;33.49;99121.51;1636178;86;20132;-73
2022/08/26 05:41:19;;;;;;;;;;;;;;;31.71;33.17;99119.27;1635805;86;21097;-72
2022/08/26 05:43:46;;;;;;;;;;;;;;;31.96;32.95;99115.02;1636684;86;20542;-74
2022/08/26 05:46:12;;;;;;;;;;;;;;;32.28;32.64;99113.80;1635879;87;20183;-71
2022/08/26 05:48:39;;;;;;;;;;;;;;;32.54;32.14;99110.55;1636355;86;20137;-70
2022/08/26 05:51:07;;;;;;;;;;;;;;;32.79;31.77;99105.63;1635876;86;20128;-70
2022/08/26 05:53:34;;;;;;;;;;;;;;;33.06;31.38;99106.45;1636338;86;21164;-72
2022/08/26 05:56:01;;;;;;;;;;;;;;;33.27;30.90;99105.41;1636448;86;20202;-73
2022/08/26 05:58:27;;;;;;;;;;;;;;;33.46;30.59;99109.99;1617229;86;20161;-72
2022/08/26 06:01:06;;;;;;;;;;;;;;;33.67;30.32;99108.73;1638926;86;20615;-70
2022/08/26 06:03:34;;;;;;;;;;;;;;;33.89;30.25;99107.11;1662312;84;20522;-70
2022/08/26 06:06:05;;;;;;;;;;;;;;;34.15;29.89;99111.91;1662251;84;21720;-69
2022/08/26 06:08:33;;;;;;;;;;;;;;;34.41;29.68;99109.02;1645536;86;20090;-71
2022/08/26 06:11:01;;;;;;;;;;;;;;;34.67;29.26;99107.45;1662817;85;20993;-70
2022/08/26 06:13:28;;;;;;;;;;;;;;;34.88;28.96;99116.55;1661442;85;20634;-70
2022/08/26 06:15:54;;;;;;;;;;;;;;;35.12;28.48;99113.88;1633913;86;20158;-69
2022/08/26 06:18:33;;;;;;;;;;;;;;;35.39;28.08;99114.42;1633564;86;21145;-69
2022/08/26 06:21:00;;;;;;;;;;;;;;;35.58;27.58;99116.93;1633533;86;20152;-69
2022/08/26 06:26:14;;;;;;;;;;;;;;;36.07;27.18;99101.17;1633130;86;20728;-69
2022/08/26 06:28:41;;;;;;;;;;;;;;;36.29;26.71;99098.50;1639354;87;20089;-69
2022/08/26 06:31:07;;;;;;;;;;;;;;;36.41;26.41;99096.52;1653743;86;21205;-69
2022/08/26 06:33:34;;;;;;;;;;;;;;;36.60;26.25;99091.77;1659068;86;20490;-69
2022/08/26 06:36:01;;;;;;;;;;;;;;;36.72;26.12;99088.14;1645778;86;20090;-70
2022/08/26 06:38:27;;;;;;;;;;;;;;;36.84;26.02;99087.50;1663319;85;20955;-69
2022/08/26 06:40:54;;;;;;;;;;;;;;;37.00;25.75;99092.55;1663752;85;20079;-70
2022/08/26 06:43:22;;;;;;;;;;;;;;;37.24;25.58;99093.00;1663847;85;21162;-69
2022/08/26 06:45:49;;;;;;;;;;;;;;;37.52;25.33;99096.55;1646262;86;20122;-69
2022/08/26 06:48:18;;;;;;;;;;;;;;;37.67;24.92;99095.77;1638678;86;20090;-70
2022/08/26 06:50:44;;;;;;;;;;;;;;;37.71;24.90;99094.45;1646263;87;20141;-70
2022/08/26 06:53:12;;;;;;;;;;;;;;;37.88;24.90;99094.71;1663810;85;20100;-70
2022/08/26 06:55:40;;;;;;;;;;;;;;;38.09;24.53;99098.78;1662569;85;21154;-70
2022/08/26 06:58:08;;;;;;;;;;;;;;;38.31;24.49;99095.95;1657690;85;20118;-69
2022/08/26 07:00:36;;;;;;;;;;;;;;;38.57;24.08;99100.30;1660598;85;20437;-69
2022/08/26 07:03:04;;;;;;;;;;;;;;;38.77;23.88;99095.61;1658291;85;20091;-68
2022/08/26 07:05:30;;;;;;;;;;;;;;;38.78;23.91;99088.86;1658183;85;20443;-69
2022/08/26 07:07:57;;;;;;;;;;;;;;;38.80;23.73;99087.31;1657730;85;21276;-69
2022/08/26 07:10:24;;;;;;;;;;;;;;;38.90;23.70;99090.89;1657248;85;20102;-69
2022/08/26 07:12:51;;;;;;;;;;;;;;;39.13;23.49;99083.20;1643472;86;20155;-69
2022/08/26 07:15:18;;;;;;;;;;;;;;;39.33;23.36;99086.18;1628517;86;20108;-69
2022/08/26 07:17:45;;;;;;;;;;;;;;;39.56;23.08;99080.03;1628004;86;20442;-69
2022/08/26 07:20:11;;;;;;;;;;;;;;;39.79;22.66;99080.06;1638708;86;22479;-69
2022/08/26 07:22:38;;;;;;;;;;;;;;;39.93;22.37;99078.87;1640091;86;20107;-69
2022/08/26 07:25:06;;;;;;;;;;;;;;;39.98;22.09;99079.95;1639345;86;20141;-69
2022/08/26 07:27:35;;;;;;;;;;;;;;;40.15;22.17;99071.69;1640095;86;20194;-68
2022/08/26 07:30:04;;;;;;;;;;;;;;;40.35;22.16;99068.98;1648599;86;20120;-69
2022/08/26 07:32:31;;;;;;;;;;;;;;;40.51;22.09;99071.84;1638710;86;20577;-70
2022/08/26 07:34:58;;;;;;;;;;;;;;;40.61;21.88;99070.36;1638326;86;20100;-69
2022/08/26 07:37:24;;;;;;;;;;;;;;;40.67;21.97;99067.45;1639382;86;20147;-70
2022/08/26 07:39:50;;;;;;;;;;;;;;;40.74;21.89;99066.72;1639084;86;20835;-69
2022/08/26 07:42:17;;;;;;;;;;;;;;;40.78;21.61;99064.18;1639054;86;20134;-69
2022/08/26 07:44:44;;;;;;;;;;;;;;;40.86;21.08;99060.30;1638861;86;21167;-70
2022/08/26 07:47:10;;;;;;;;;;;;;;;40.97;20.89;99057.66;1638721;86;20103;-69
2022/08/26 07:49:37;;;;;;;;;;;;;;;41.12;20.80;99053.83;1638731;86;20459;-69
2022/08/26 07:52:03;;;;;;;;;;;;;;;41.31;20.89;99061.22;1638777;86;20107;-70
2022/08/26 07:54:30;;;;;;;;;;;;;;;41.53;20.89;99061.64;1639039;86;20125;-71
2022/08/26 07:56:57;;;;;;;;;;;;;;;41.68;20.67;99057.77;1638695;86;21217;-69
2022/08/26 07:59:23;;;;;;;;;;;;;;;41.82;20.53;99049.55;1639371;86;20120;-70
2022/08/26 08:01:50;;;;;;;;;;;;;;;41.87;20.43;99049.19;1639726;86;20413;-70
2022/08/26 08:04:16;;;;;;;;;;;;;;;41.88;19.93;99045.18;1639429;86;20160;-70
2022/08/26 08:06:44;;;;;;;;;;;;;;;41.99;19.80;99047.45;1638767;86;20508;-70
2022/08/26 08:09:12;;;;;;;;;;;;;;;42.18;19.64;99054.20;1639195;86;21131;-69
2022/08/26 08:11:39;;;;;;;;;;;;;;;42.28;19.54;99037.28;1639304;87;20152;-69
2022/08/26 08:14:06;;;;;;;;;;;;;;;42.38;19.61;99036.53;1638197;86;20092;-71
2022/08/26 08:16:32;;;;;;;;;;;;;;;42.45;19.44;99037.36;1638516;86;20104;-70
2022/08/26 08:18:59;;;;;;;;;;;;;;;42.50;19.18;99040.98;1638980;86;20203;-71
2022/08/26 08:21:25;;;;;;;;;;;;;;;42.49;18.91;99038.78;1638882;86;21119;-71
2022/08/26 08:23:52;;;;;;;;;;;;;;;42.45;18.64;99033.16;1638854;86;20108;-69
2022/08/26 08:26:18;;;;;;;;;;;;;;;42.39;18.74;99034.76;1638265;86;20140;-70
2022/08/26 08:28:46;;;;;;;;;;;;;;;42.18;18.87;99037.44;1639339;86;20091;-69
2022/08/26 08:31:30;;;;;;;;;;;;;;;42.27;18.78;99037.06;1642753;86;20436;-70
2022/08/26 08:33:56;;;;;;;;;;;;;;;42.52;18.50;99038.59;1644387;86;21205;-70
2022/08/26 08:36:22;;;;;;;;;;;;;;;42.71;17.70;99036.91;1644760;86;20111;-71
2022/08/26 08:38:49;;;;;;;;;;;;;;;42.84;17.42;99033.33;1644782;86;20154;-69
2022/08/26 08:41:55;;;;;;;;;;;;;;;43.07;17.69;99033.63;1642946;86;20095;-68
2022/08/26 08:44:22;;;;;;;;;;;;;;;43.16;16.78;99025.63;1641820;86;20160;-69
2022/08/26 08:46:53;;;;;;;;;;;;;;;43.16;16.84;99034.03;1643689;86;21893;-67
2022/08/26 08:49:20;;;;;;;;;;;;;;;43.26;16.43;99029.84;1643963;86;20092;-69
2022/08/26 08:51:53;;;;;;;;;;;;;;;43.42;16.57;99024.69;1644434;86;20453;-70
2022/08/26 08:54:19;;;;;;;;;;;;;;;43.69;16.76;99021.48;1644308;86;20507;-69
2022/08/26 08:56:54;;;;;;;;;;;;;;;43.94;16.69;99019.46;1643520;86;20100;-67
2022/08/26 08:59:26;;;;;;;;;;;;;;;44.21;16.66;99019.23;1641985;86;21286;-69
2022/08/26 09:02:01;;;;;;;;;;;;;;;44.43;15.47;99024.95;1641329;86;20438;-68
2022/08/26 09:04:43;;;;;;;;;;;;;;;44.48;15.08;99018.14;1641979;86;20150;-69
2022/08/26 09:07:13;;;;;;;;;;;;;;;44.68;15.04;99020.67;1640810;87;20120;-70
2022/08/26 09:09:46;;;;;;;;;;;;;;;45.06;15.12;99016.05;1641358;86;20096;-70
2022/08/26 09:12:17;;;;;;;;;;;;;;;45.46;14.78;99001.34;1641368;86;21135;-70
2022/08/26 09:14:44;;;;;;;;;;;;;;;46.00;14.43;99012.91;1641985;86;20191;-72
2022/08/26 09:17:31;;;;;;;;;;;;;;;46.65;14.07;99007.54;1640860;86;20124;-72
2022/08/26 09:20:13;;;;;;;;;;;;;;;47.51;13.65;99003.84;1641291;87;20169;-72
2022/08/26 09:22:40;;;;;;;;;;;;;;;48.05;12.30;98994.63;1640901;86;20117;-69
2022/08/26 09:25:09;;;;;;;;;;;;;;;48.59;11.75;98997.98;1641452;86;21270;-69
2022/08/26 09:27:39;;;;;;;;;;;;;;;49.07;11.05;98999.34;1641345;87;20107;-70
2022/08/26 09:30:07;;;;;;;;;;;;;;;49.42;10.59;98993.63;1641334;86;20124;-69
2022/08/26 09:32:34;;;;;;;;;;;;;;;50.08;10.53;98989.48;1636397;86;20096;-70
2022/08/26 09:35:10;;;;;;;;;;;;;;;51.06;10.09;98993.43;1637189;87;20100;-69
2022/08/26 09:37:42;;;;;;;;;;;;;;;51.68;9.15;98986.90;1639928;85;21213;-70
2022/08/26 09:40:18;;;;;;;;;;;;;;;52.05;8.99;98988.02;1636729;87;20080;-70
2022/08/26 09:42:45;;;;;;;;;;;;;;;52.29;8.62;98973.57;1636923;86;32486;-70
2022/08/26 09:45:12;;;;;;;;;;;;;;;52.88;8.47;98980.22;1636838;86;20668;-70
2022/08/26 09:47:42;;;;;;;;;;;;;;;53.14;8.00;98973.05;1637089;86;20438;-74
2022/08/26 09:50:20;;;;;;;;;;;;;;;53.20;7.88;98974.64;1634632;86;21150;-72
2022/08/26 09:52:46;;;;;;;;;;;;;;;53.31;7.88;98973.59;1636112;86;20500;-70
2022/08/26 09:55:21;;;;;;;;;;;;;;;53.56;7.95;98966.88;1587723;87;20092;-69
2022/08/26 09:57:50;;;;;;;;;;;;;;;54.10;7.72;98967.69;1638229;86;20152;-69
2022/08/26 10:00:35;;;;;;;;;;;;;;;54.59;7.26;98970.92;1638549;86;20425;-70
2022/08/26 10:03:04;;;;;;;;;;;;;;;54.46;6.99;98966.83;1639165;86;21180;-70
2022/08/26 10:05:40;;;;;;;;;;;;;;;54.36;7.13;98963.06;1638127;86;20096;-71
2022/08/26 10:08:22;;;;;;;;;;;;;;;54.37;7.29;98961.81;1636566;86;20132;-71
2022/08/26 10:10:49;;;;;;;;;;;;;;;54.63;7.08;98968.68;1636733;86;21000;-70
2022/08/26 10:13:25;;;;;;;;;;;;;;;54.42;6.80;98961.16;1659787;85;20486;-70
2022/08/26 10:15:56;;;;;;;;;;;;;;;54.19;7.10;98954.71;1616507;86;21119;-71
2022/08/26 10:18:31;;;;;;;;;;;;;;;54.08;6.85;98963.08;1651590;85;20151;-73
2022/08/26 10:21:10;;;;;;;;;;;;;;;53.60;7.03;98960.40;1659950;85;20102;-73
2022/08/26 10:23:39;;;;;;;;;;;;;;;53.16;7.37;98952.70;1659495;85;20157;-73
2022/08/26 10:26:09;;;;;;;;;;;;;;;52.73;7.43;98958.69;1659690;85;20118;-74
2022/08/26 10:28:51;;;;;;;;;;;;;;;52.05;7.69;98952.57;1659976;85;21146;-72
2022/08/26 10:31:21;;;;;;;;;;;;;;;51.82;7.97;98951.58;1659655;85;20174;-72
2022/08/26 10:33:48;;;;;;;;;;;;;;;51.38;7.96;98953.53;1662179;85;20161;-71
2022/08/26 10:39:02;;;;;;;;;;;;;;;50.17;8.78;98948.60;1657918;86;20102;-71
2022/08/26 10:41:31;;;;;;;;;;;;;;;49.70;8.88;98940.47;1657861;86;21056;-69
2022/08/26 10:43:58;;;;;;;;;;;;;;;49.02;9.18;98952.64;1657684;86;20671;-69
2022/08/26 10:46:28;;;;;;;;;;;;;;;47.91;9.45;98952.62;1657881;86;20173;-69
2022/08/26 10:49:00;;;;;;;;;;;;;;;46.51;10.22;98947.45;1658493;86;20181;-69
2022/08/26 10:51:34;;;;;;;;;;;;;;;45.38;11.11;98945.86;1657080;86;20089;-69
2022/08/26 10:54:13;;;;;;;;;;;;;;;44.41;11.44;98945.25;1658009;85;21166;-71
2022/08/26 10:56:47;;;;;;;;;;;;;;;43.85;11.75;98937.27;1657808;86;20130;-70
2022/08/26 10:59:50;;;;;;;;;;;;;;;43.43;12.35;98933.92;1663126;85;20114;-71
2022/08/26 11:02:23;;;;;;;;;;;;;;;42.97;12.82;98945.08;1663082;85;20126;-70
2022/08/26 11:04:55;;;;;;;;;;;;;;;42.16;12.90;98936.42;1662946;85;20135;-70
2022/08/26 11:07:44;;;;;;;;;;;;;;;41.25;13.50;98938.77;1663124;85;21275;-71
2022/08/26 11:10:25;;;;;;;;;;;;;;;40.69;13.58;98936.84;1662940;85;20102;-71
2022/08/26 11:12:56;;;;;;;;;;;;;;;40.18;13.71;98929.66;1645429;85;20081;-71
2022/08/26 11:15:28;;;;;;;;;;;;;;;39.84;14.03;98932.97;1663036;85;20077;-70
2022/08/26 11:17:56;;;;;;;;;;;;;;;39.49;14.26;98923.50;1662611;85;20102;-70
2022/08/26 11:20:37;;;;;;;;;;;;;;;39.31;14.88;98933.56;1663002;85;21174;-71
2022/08/26 11:23:22;;;;;;;;;;;;;;;39.15;15.46;98932.86;1646468;85;20134;-69
2022/08/26 11:26:14;;;;;;;;;;;;;;;39.01;15.38;98933.19;1663420;85;20106;-71
2022/08/26 11:28:47;;;;;;;;;;;;;;;38.90;15.21;98917.75;1663155;85;20090;-71
2022/08/26 11:31:26;;;;;;;;;;;;;;;38.76;15.64;98917.48;1662621;85;20094;-71
2022/08/26 11:33:56;;;;;;;;;;;;;;;38.63;15.55;98922.38;1660319;85;21164;-69
2022/08/26 11:36:34;;;;;;;;;;;;;;;38.50;15.49;98918.17;1660186;85;20126;-70
2022/08/26 11:39:13;;;;;;;;;;;;;;;38.34;15.46;98913.28;1660409;85;20432;-68
2022/08/26 11:41:44;;;;;;;;;;;;;;;38.10;15.60;98908.00;1652813;86;20122;-70
2022/08/26 11:44:10;;;;;;;;;;;;;;;37.81;15.77;98911.30;1653221;85;20090;-72
2022/08/26 11:46:36;;;;;;;;;;;;;;;37.54;16.17;98908.37;1660161;85;21810;-72
2022/08/26 11:49:05;;;;;;;;;;;;;;;37.27;16.09;98905.69;1659664;85;20172;-70
2022/08/26 11:51:32;;;;;;;;;;;;;;;37.03;16.67;98909.46;1656089;85;20178;-72
2022/08/26 11:54:09;;;;;;;;;;;;;;;36.86;16.96;98905.06;1649580;85;20546;-70
2022/08/26 11:56:36;;;;;;;;;;;;;;;36.82;16.89;98893.64;1660554;85;20146;-70
2022/08/26 11:59:09;;;;;;;;;;;;;;;36.78;17.16;98889.41;1641422;85;21985;-70
2022/08/26 12:01:38;;;;;;;;;;;;;;;36.75;17.82;98889.31;1660419;85;20114;-68
2022/08/26 12:04:06;;;;;;;;;;;;;;;36.70;17.45;98892.34;1660644;85;20090;-69
2022/08/26 12:06:41;;;;;;;;;;;;;;;36.58;16.62;98893.22;1660445;85;20090;-70
2022/08/26 12:09:10;;;;;;;;;;;;;;;36.39;16.31;98885.59;1660076;85;20106;-75
2022/08/26 12:11:38;;;;;;;;;;;;;;;36.29;16.79;98888.06;1660387;85;21539;-68
2022/08/26 12:14:08;;;;;;;;;;;;;;;36.17;16.35;98888.09;1660462;85;20462;-70
2022/08/26 12:16:37;;;;;;;;;;;;;;;36.01;15.62;98880.34;1660268;85;20149;-71
2022/08/26 12:19:26;;;;;;;;;;;;;;;35.81;16.41;98879.33;1660290;85;20114;-69
2022/08/26 12:22:02;;;;;;;;;;;;;;;35.57;16.96;98874.66;1660420;85;20097;-71
2022/08/26 12:24:29;;;;;;;;;;;;;;;35.46;17.22;98876.86;1642492;85;21385;-70
2022/08/26 12:27:18;;;;;;;;;;;;;;;35.37;17.68;98867.88;1660374;85;20170;-70
2022/08/26 12:29:45;;;;;;;;;;;;;;;35.28;17.81;98880.43;1660427;85;20479;-71
2022/08/26 12:32:14;;;;;;;;;;;;;;;35.12;17.42;98877.56;1631775;86;20122;-70
2022/08/26 12:34:41;;;;;;;;;;;;;;;34.99;17.77;98871.77;1665785;84;20451;-68
2022/08/26 12:37:09;;;;;;;;;;;;;;;34.90;18.19;98866.95;1666082;84;21220;-71
2022/08/26 12:39:37;;;;;;;;;;;;;;;34.82;18.18;98872.57;1665869;85;20165;-70
2022/08/26 12:42:16;;;;;;;;;;;;;;;34.75;18.49;98869.80;1665935;85;20158;-70
2022/08/26 12:45:00;;;;;;;;;;;;;;;34.71;18.79;98876.36;1665883;84;20623;-71
2022/08/26 12:47:29;;;;;;;;;;;;;;;34.57;18.76;98878.05;1665391;85;20090;-69
2022/08/26 12:50:05;;;;;;;;;;;;;;;34.32;18.87;98874.97;1665808;84;21155;-71
2022/08/26 12:52:34;;;;;;;;;;;;;;;34.18;18.91;98866.20;1665445;85;20101;-70
2022/08/26 12:55:11;;;;;;;;;;;;;;;34.07;18.80;98861.68;1665807;84;20094;-70
2022/08/26 12:57:37;;;;;;;;;;;;;;;33.99;19.10;98853.44;1658056;84;20110;-70
2022/08/26 13:00:24;;;;;;;;;;;;;;;33.89;19.77;98867.09;1665839;85;20526;-72
2022/08/26 13:02:50;;;;;;;;;;;;;;;33.86;19.12;98858.11;1665865;85;21896;-71
2022/08/26 13:05:31;;;;;;;;;;;;;;;33.83;19.33;98858.77;1665879;84;20089;-71